Time;durP1;ratioP1;P1;durP2;ratioP2;P2;SDS_P1;SDS_P2;PMS_P1;PMS_P2;Temp;Humidity;BMP_temperature;BMP_pressure;BME280_temperature;BME280_humidity;BME280_pressure;Samples;Min_cycle;Max_cycle;Signal;HPM_P1;HPM_P2
2021/12/30 00:00:44;;;;;;;2.17;1.50;;;7.70;80.20;;;;;;5176194;27;20082;-58
2021/12/30 00:03:10;;;;;;;1.80;1.60;;;7.70;80.20;;;;;;5158838;27;20046;-58
2021/12/30 00:05:38;;;;;;;1.88;1.48;;;7.70;80.20;;;;;;5177604;27;20126;-57
2021/12/30 00:08:04;;;;;;;1.40;1.30;;;7.70;80.20;;;;;;5158695;27;20462;-57
2021/12/30 00:10:30;;;;;;;1.35;1.20;;;7.70;80.20;;;;;;5174827;27;20063;-58
2021/12/30 00:12:57;;;;;;;1.70;1.17;;;7.70;80.20;;;;;;5176752;27;20038;-58
2021/12/30 00:15:23;;;;;;;1.50;1.20;;;7.70;80.20;;;;;;5158573;27;20038;-58
2021/12/30 00:17:49;;;;;;;2.40;1.30;;;7.70;80.20;;;;;;5177365;27;20108;-57
2021/12/30 00:20:15;;;;;;;2.25;1.35;;;7.70;80.20;;;;;;5175313;27;20498;-58
2021/12/30 00:22:42;;;;;;;1.30;1.20;;;7.70;80.20;;;;;;5176572;27;20464;-57
2021/12/30 00:25:10;;;;;;;1.63;1.42;;;7.70;80.20;;;;;;5176748;27;20101;-58
2021/12/30 00:27:36;;;;;;;1.98;1.25;;;7.70;80.20;;;;;;5176447;27;20038;-58
2021/12/30 00:30:04;;;;;;;1.40;1.30;;;7.70;80.20;;;;;;5176809;27;20106;-58
2021/12/30 00:32:29;;;;;;;1.40;1.20;;;7.70;80.20;;;;;;5175344;27;20034;-58
2021/12/30 00:34:55;;;;;;;2.13;1.50;;;7.70;80.20;;;;;;5176609;27;20042;-58
2021/12/30 00:37:21;;;;;;;2.22;1.10;;;7.70;80.20;;;;;;5176648;27;20038;-57
2021/12/30 00:39:46;;;;;;;1.40;1.15;;;7.70;80.20;;;;;;5176558;27;20038;-57
2021/12/30 00:42:12;;;;;;;1.10;1.00;;;7.70;80.20;;;;;;5155552;27;20385;-58
2021/12/30 00:44:38;;;;;;;1.40;1.30;;;7.70;80.20;;;;;;5157144;27;20521;-58
2021/12/30 00:47:04;;;;;;;1.38;1.10;;;7.70;80.20;;;;;;5176775;27;20036;-57
2021/12/30 00:49:30;;;;;;;2.38;1.38;;;7.70;80.20;;;;;;5176577;27;20046;-58
2021/12/30 00:51:56;;;;;;;1.13;1.02;;;7.70;80.20;;;;;;5174568;27;20435;-58
2021/12/30 00:54:23;;;;;;;1.52;1.13;;;7.70;80.20;;;;;;5176450;27;20121;-59
2021/12/30 00:56:49;;;;;;;1.75;1.50;;;7.70;80.20;;;;;;5176356;27;20038;-58
2021/12/30 00:59:15;;;;;;;1.35;1.02;;;7.70;80.20;;;;;;5175978;27;20077;-58
2021/12/30 01:01:42;;;;;;;1.42;1.25;;;7.70;80.20;;;;;;5176497;27;20077;-59
2021/12/30 01:04:08;;;;;;;1.60;1.30;;;7.70;80.20;;;;;;5174447;27;20042;-59
2021/12/30 01:06:34;;;;;;;1.60;1.10;;;7.70;80.20;;;;;;5176431;27;20042;-57
2021/12/30 01:08:59;;;;;;;2.08;1.00;;;7.70;80.20;;;;;;5176387;27;20367;-58
2021/12/30 01:11:26;;;;;;;1.63;1.20;;;7.70;80.20;;;;;;5175884;27;20045;-58
2021/12/30 01:14:04;;;;;;;1.70;1.38;;;7.70;80.20;;;;;;5174393;27;20109;-58
2021/12/30 01:16:35;;;;;;;1.45;1.15;;;7.70;80.20;;;;;;5175567;27;20049;-58
2021/12/30 01:19:22;;;;;;;1.17;1.08;;;7.70;80.20;;;;;;5157173;27;20057;-58
2021/12/30 01:21:53;;;;;;;1.42;1.00;;;7.70;80.20;;;;;;5175833;27;20049;-58
2021/12/30 01:24:19;;;;;;;1.20;1.10;;;7.70;80.20;;;;;;5173963;27;20046;-58
2021/12/30 01:26:46;;;;;;;1.40;0.93;;;7.70;80.20;;;;;;5176048;27;20046;-58
2021/12/30 01:29:12;;;;;;;1.40;1.10;;;7.70;80.20;;;;;;5175919;27;20383;-58
2021/12/30 01:31:37;;;;;;;1.42;1.33;;;7.70;80.20;;;;;;5175546;27;20049;-58
2021/12/30 01:34:03;;;;;;;1.80;1.23;;;7.70;80.20;;;;;;5175437;27;20042;-58
2021/12/30 01:36:28;;;;;;;1.20;1.10;;;7.70;80.20;;;;;;5174157;27;20049;-58
2021/12/30 01:38:55;;;;;;;1.23;1.02;;;7.70;80.20;;;;;;5175735;27;20042;-58
2021/12/30 01:41:22;;;;;;;1.90;1.20;;;7.70;80.20;;;;;;5175558;27;20046;-58
2021/12/30 01:43:48;;;;;;;1.60;1.27;;;7.70;80.20;;;;;;5175616;27;20107;-59
2021/12/30 01:46:15;;;;;;;1.50;1.40;;;7.70;80.20;;;;;;5162858;27;20118;-58
2021/12/30 01:48:41;;;;;;;1.63;1.30;;;7.70;80.20;;;;;;5135698;27;20050;-58
2021/12/30 01:51:07;;;;;;;1.45;1.20;;;7.70;80.20;;;;;;5154552;27;20031;-58
2021/12/30 01:53:34;;;;;;;1.67;1.35;;;7.70;80.20;;;;;;5154541;27;20078;-58
2021/12/30 01:56:00;;;;;;;2.03;1.50;;;7.70;80.20;;;;;;5155078;27;20087;-57
2021/12/30 01:58:26;;;;;;;1.45;1.08;;;7.80;80.30;;;;;;5154702;27;20038;-58
2021/12/30 02:00:52;;;;;;;1.40;1.20;;;7.70;80.20;;;;;;5154620;27;20118;-59
2021/12/30 02:03:20;;;;;;;1.58;1.08;;;7.70;80.20;;;;;;5159146;27;20121;-56
2021/12/30 02:05:45;;;;;;;1.42;1.00;;;7.70;80.20;;;;;;5161435;27;20041;-58
2021/12/30 02:08:14;;;;;;;1.50;0.82;;;7.70;80.20;;;;;;5163951;27;20043;-57
2021/12/30 02:10:42;;;;;;;2.20;1.10;;;7.70;80.20;;;;;;5161330;27;20042;-58
2021/12/30 02:13:09;;;;;;;1.15;1.05;;;7.70;80.20;;;;;;5161287;27;20531;-58
2021/12/30 02:15:35;;;;;;;1.70;1.15;;;7.70;80.20;;;;;;5161480;27;20117;-58
2021/12/30 02:18:02;;;;;;;0.95;0.85;;;7.70;80.20;;;;;;5162611;27;20091;-57
2021/12/30 02:21:00;;;;;;;1.90;1.08;;;7.80;80.90;;;;;;5160679;27;20125;-58
2021/12/30 02:23:35;;;;;;;1.38;1.10;;;7.80;80.30;;;;;;5161196;27;20085;-54
2021/12/30 02:26:08;;;;;;;1.27;1.17;;;7.70;80.20;;;;;;5161185;27;20063;-57
2021/12/30 02:28:36;;;;;;;1.00;0.90;;;7.70;80.30;;;;;;5162700;27;20129;-58
2021/12/30 02:31:24;;;;;;;0.90;0.80;;;7.80;80.30;;;;;;5160903;27;20039;-57
2021/12/30 02:33:51;;;;;;;1.30;1.13;;;7.80;80.30;;;;;;5160837;27;20039;-57
2021/12/30 02:36:22;;;;;;;1.88;1.10;;;7.70;80.20;;;;;;5160604;27;20046;-57
2021/12/30 02:38:48;;;;;;;1.15;1.00;;;7.80;80.30;;;;;;5162391;27;20383;-56
2021/12/30 02:41:18;;;;;;;1.55;1.05;;;7.70;80.30;;;;;;5161155;27;20038;-57
2021/12/30 02:43:47;;;;;;;1.10;1.00;;;7.70;80.30;;;;;;5161309;27;20121;-57
2021/12/30 02:46:14;;;;;;;1.25;0.80;;;7.70;80.30;;;;;;5161258;27;20046;-58
2021/12/30 02:48:41;;;;;;;1.33;0.90;;;7.80;80.30;;;;;;5160975;27;20054;-56
2021/12/30 02:51:10;;;;;;;1.33;1.17;;;7.80;80.30;;;;;;5161822;27;20491;-57
2021/12/30 02:53:36;;;;;;;1.15;0.98;;;7.80;80.40;;;;;;5142325;27;20479;-57
2021/12/30 02:56:04;;;;;;;1.42;1.00;;;7.70;80.30;;;;;;5161058;27;20405;-58
2021/12/30 02:58:30;;;;;;;1.00;0.90;;;7.80;80.30;;;;;;5160782;27;20474;-56
2021/12/30 03:01:07;;;;;;;1.00;0.82;;;7.70;80.90;;;;;;5162033;27;20046;-58
2021/12/30 03:03:33;;;;;;;1.30;1.10;;;7.80;80.40;;;;;;5160606;27;20059;-57
2021/12/30 03:06:03;;;;;;;1.00;0.90;;;7.80;80.30;;;;;;5161080;27;20125;-58
2021/12/30 03:08:29;;;;;;;1.20;1.00;;;7.80;80.40;;;;;;5160364;27;20090;-58
2021/12/30 03:10:55;;;;;;;1.10;0.90;;;7.80;80.40;;;;;;5162047;27;20110;-58
2021/12/30 03:13:30;;;;;;;1.08;0.90;;;7.80;80.40;;;;;;5160545;27;20511;-58
2021/12/30 03:16:02;;;;;;;1.48;0.90;;;7.80;80.40;;;;;;5157361;27;20082;-58
2021/12/30 03:18:29;;;;;;;0.98;0.88;;;7.80;80.40;;;;;;5157419;27;20038;-57
2021/12/30 03:20:55;;;;;;;1.10;0.93;;;7.70;80.30;;;;;;5158729;27;20394;-56
2021/12/30 03:23:21;;;;;;;1.20;1.05;;;7.80;80.40;;;;;;5156882;27;20054;-57
2021/12/30 03:25:46;;;;;;;2.20;1.17;;;7.80;80.40;;;;;;5138734;27;20380;-57
2021/12/30 03:28:12;;;;;;;1.00;0.90;;;7.80;80.40;;;;;;5157421;27;20066;-56
2021/12/30 03:30:38;;;;;;;1.30;1.20;;;7.80;80.40;;;;;;5157177;27;20597;-58
2021/12/30 03:33:04;;;;;;;1.30;1.05;;;7.80;80.40;;;;;;5158299;27;20459;-57
2021/12/30 03:35:30;;;;;;;1.10;1.00;;;7.80;80.40;;;;;;5157247;27;20458;-56
2021/12/30 03:37:57;;;;;;;1.40;1.00;;;7.80;80.40;;;;;;5157203;27;20034;-57
2021/12/30 03:40:23;;;;;;;1.52;0.95;;;7.80;80.40;;;;;;5156519;27;20054;-57
2021/12/30 03:42:50;;;;;;;1.15;0.95;;;7.80;80.40;;;;;;5158345;27;20078;-58
2021/12/30 03:45:16;;;;;;;1.38;1.00;;;7.80;80.40;;;;;;5157033;27;20039;-57
2021/12/30 03:47:45;;;;;;;1.92;1.55;;;7.80;80.40;;;;;;5157131;27;20038;-57
2021/12/30 03:50:21;;;;;;;1.08;0.98;;;7.80;80.40;;;;;;5156752;27;20572;-58
2021/12/30 03:52:59;;;;;;;1.13;1.00;;;7.80;80.40;;;;;;5157772;27;20122;-56
2021/12/30 03:55:26;;;;;;;1.33;1.10;;;7.80;80.40;;;;;;5156083;27;20486;-58
2021/12/30 03:57:53;;;;;;;1.65;1.23;;;7.80;80.40;;;;;;5156953;27;20086;-58
2021/12/30 04:00:20;;;;;;;0.82;0.70;;;7.80;80.40;;;;;;5156488;27;20119;-57
2021/12/30 04:02:47;;;;;;;3.33;1.25;;;7.80;80.40;;;;;;5156488;27;20079;-57
2021/12/30 04:05:12;;;;;;;1.27;1.00;;;7.80;80.40;;;;;;5157666;27;20482;-58
2021/12/30 04:07:39;;;;;;;2.58;1.10;;;7.80;80.40;;;;;;5156553;27;20054;-57
2021/12/30 04:10:08;;;;;;;1.15;0.88;;;7.80;80.40;;;;;;5156614;27;20039;-58
2021/12/30 04:12:34;;;;;;;1.30;0.70;;;7.80;80.40;;;;;;5155727;27;20509;-57
2021/12/30 04:15:03;;;;;;;0.80;0.80;;;7.80;80.40;;;;;;5157238;27;20038;-58
2021/12/30 04:17:29;;;;;;;1.10;0.85;;;7.80;80.40;;;;;;5156138;27;20099;-57
2021/12/30 04:19:54;;;;;;;1.58;0.90;;;7.80;80.40;;;;;;5156370;27;20039;-57
2021/12/30 04:22:20;;;;;;;1.90;0.95;;;7.80;80.40;;;;;;5156357;27;20091;-56
2021/12/30 04:24:47;;;;;;;1.00;0.90;;;7.80;80.40;;;;;;5156726;27;20061;-56
2021/12/30 04:27:13;;;;;;;1.13;0.88;;;7.80;80.40;;;;;;5164232;27;20091;-57
2021/12/30 04:29:39;;;;;;;1.00;0.90;;;7.80;80.40;;;;;;5156216;27;20047;-56
2021/12/30 04:32:05;;;;;;;3.03;1.15;;;7.80;80.40;;;;;;5155796;27;20031;-57
2021/12/30 04:34:31;;;;;;;1.65;1.10;;;7.80;80.40;;;;;;5137448;27;20472;-57
2021/12/30 04:36:59;;;;;;;1.13;1.00;;;7.80;81.00;;;;;;5166238;27;20046;-57
2021/12/30 04:39:30;;;;;;;1.67;0.90;;;7.80;80.40;;;;;;5176635;27;20054;-58
2021/12/30 04:41:58;;;;;;;1.63;0.88;;;7.80;80.40;;;;;;5158555;27;20398;-57
2021/12/30 04:44:25;;;;;;;1.70;0.90;;;7.80;80.40;;;;;;5155294;27;20051;-57
2021/12/30 04:46:51;;;;;;;0.95;0.60;;;7.80;80.40;;;;;;5156737;27;20066;-57
2021/12/30 04:49:17;;;;;;;0.90;0.90;;;7.80;80.40;;;;;;5155499;27;20050;-57
2021/12/30 04:51:42;;;;;;;1.10;0.93;;;7.80;80.40;;;;;;5155836;27;20039;-58
2021/12/30 04:54:08;;;;;;;1.63;0.75;;;7.80;80.40;;;;;;5136925;27;20518;-58
2021/12/30 04:56:34;;;;;;;1.25;1.15;;;7.80;80.40;;;;;;5155543;27;20043;-58
2021/12/30 04:59:00;;;;;;;0.82;0.80;;;7.80;80.40;;;;;;5155947;27;20039;-57
2021/12/30 05:01:25;;;;;;;1.60;1.17;;;7.80;80.40;;;;;;5155381;27;20045;-57
2021/12/30 05:03:51;;;;;;;1.17;0.90;;;7.80;80.40;;;;;;5155426;27;20392;-57
2021/12/30 05:06:17;;;;;;;2.33;1.35;;;7.80;80.40;;;;;;5155520;27;20091;-58
2021/12/30 05:08:43;;;;;;;1.33;0.88;;;7.80;80.40;;;;;;5156394;27;20073;-57
2021/12/30 05:11:09;;;;;;;0.98;0.82;;;7.80;80.50;;;;;;5155368;27;20498;-58
2021/12/30 05:13:35;;;;;;;1.50;1.00;;;7.90;80.40;;;;;;5155530;27;20034;-58
2021/12/30 05:16:01;;;;;;;1.33;1.00;;;7.80;80.40;;;;;;5136001;27;20069;-57
2021/12/30 05:18:31;;;;;;;1.50;0.80;;;7.80;80.40;;;;;;5156257;27;20486;-57
2021/12/30 05:20:59;;;;;;;1.00;0.90;;;7.80;80.40;;;;;;5154857;27;20047;-58
2021/12/30 05:23:25;;;;;;;1.20;0.80;;;7.80;80.40;;;;;;5136426;27;20158;-58
2021/12/30 05:25:51;;;;;;;1.30;0.70;;;7.90;80.40;;;;;;5154893;27;20121;-56
2021/12/30 05:28:16;;;;;;;1.98;0.90;;;7.90;80.40;;;;;;5155078;27;20046;-58
2021/12/30 05:30:42;;;;;;;1.52;0.75;;;7.90;80.50;;;;;;5155893;27;20046;-56
2021/12/30 05:33:08;;;;;;;1.15;0.80;;;7.90;80.50;;;;;;5154895;27;20394;-57
2021/12/30 05:35:34;;;;;;;1.50;1.17;;;7.90;80.40;;;;;;5154622;27;20401;-57
2021/12/30 05:38:01;;;;;;;1.50;1.10;;;7.90;80.40;;;;;;5154013;27;20034;-58
2021/12/30 05:40:27;;;;;;;1.23;0.70;;;7.90;80.40;;;;;;5156068;27;20046;-58
2021/12/30 05:42:53;;;;;;;0.65;0.65;;;7.90;80.40;;;;;;5154952;27;20049;-58
2021/12/30 05:45:20;;;;;;;1.52;1.02;;;7.90;80.40;;;;;;5154677;27;20047;-57
2021/12/30 05:47:47;;;;;;;1.23;0.75;;;7.90;80.40;;;;;;5154263;27;20065;-58
2021/12/30 05:50:19;;;;;;;2.65;1.17;;;7.90;80.40;;;;;;5155608;27;20042;-58
2021/12/30 05:52:45;;;;;;;1.20;0.82;;;7.90;80.40;;;;;;5154792;27;20045;-58
2021/12/30 05:55:11;;;;;;;1.73;0.77;;;7.90;80.40;;;;;;5154630;27;20087;-58
2021/12/30 05:57:38;;;;;;;1.08;0.88;;;7.90;80.40;;;;;;5154712;27;20042;-58
2021/12/30 06:00:06;;;;;;;1.55;0.90;;;7.90;80.40;;;;;;5154781;27;20039;-58
2021/12/30 06:02:31;;;;;;;1.17;0.90;;;7.90;80.40;;;;;;5136707;27;20034;-57
2021/12/30 06:04:57;;;;;;;1.63;0.93;;;7.90;80.40;;;;;;5154438;27;20091;-57
2021/12/30 06:07:22;;;;;;;1.23;0.77;;;7.90;80.40;;;;;;5154201;27;20084;-58
2021/12/30 06:09:48;;;;;;;1.98;0.85;;;7.90;80.40;;;;;;5154658;27;20057;-56
2021/12/30 06:12:14;;;;;;;0.98;0.80;;;7.90;80.40;;;;;;5155615;27;20035;-58
2021/12/30 06:14:40;;;;;;;1.25;0.95;;;7.90;80.40;;;;;;5154361;27;20078;-56
2021/12/30 06:17:06;;;;;;;1.50;0.90;;;7.90;80.40;;;;;;5154463;27;20050;-57
2021/12/30 06:19:31;;;;;;;1.55;0.90;;;7.90;80.40;;;;;;5153930;27;20031;-57
2021/12/30 06:21:57;;;;;;;1.50;1.00;;;7.90;80.40;;;;;;5136008;27;20425;-57
2021/12/30 06:24:23;;;;;;;1.35;0.90;;;7.90;80.40;;;;;;5154469;27;20531;-57
2021/12/30 06:26:48;;;;;;;1.00;1.00;;;7.90;80.40;;;;;;5154535;27;20050;-56
2021/12/30 06:29:14;;;;;;;1.42;1.00;;;7.90;80.40;;;;;;5154219;27;20542;-57
2021/12/30 06:31:41;;;;;;;1.55;0.98;;;7.90;80.40;;;;;;5154468;27;20043;-57
2021/12/30 06:34:07;;;;;;;0.70;0.70;;;7.90;80.30;;;;;;5155059;27;20030;-58
2021/12/30 06:36:34;;;;;;;1.52;0.85;;;7.90;80.40;;;;;;5153666;27;20046;-57
2021/12/30 06:38:59;;;;;;;1.88;0.80;;;7.90;80.40;;;;;;5154228;27;20074;-57
2021/12/30 06:41:25;;;;;;;1.23;1.00;;;7.90;80.30;;;;;;5154281;27;20082;-57
2021/12/30 06:43:50;;;;;;;2.38;1.10;;;7.90;80.40;;;;;;5155414;27;20113;-56
2021/12/30 06:46:19;;;;;;;1.90;0.95;;;7.90;80.30;;;;;;5154048;27;20099;-57
2021/12/30 06:48:46;;;;;;;2.53;1.35;;;7.90;80.30;;;;;;5155382;27;20050;-58
2021/12/30 06:51:13;;;;;;;0.82;0.70;;;7.90;80.30;;;;;;5157474;27;20031;-58
2021/12/30 06:53:39;;;;;;;0.70;0.70;;;7.90;80.30;;;;;;5157902;27;20145;-57
2021/12/30 06:56:05;;;;;;;1.55;0.93;;;7.90;80.40;;;;;;5159263;27;20034;-57
2021/12/30 06:58:32;;;;;;;1.98;1.05;;;7.90;80.30;;;;;;5139326;27;20424;-58
2021/12/30 07:00:58;;;;;;;1.85;0.95;;;7.90;80.30;;;;;;5157799;27;20047;-58
2021/12/30 07:03:24;;;;;;;1.02;0.90;;;7.90;80.30;;;;;;5157822;27;20049;-58
2021/12/30 07:05:53;;;;;;;1.70;1.00;;;7.90;80.30;;;;;;5159037;27;20385;-57
2021/12/30 07:08:18;;;;;;;0.85;0.70;;;8.00;80.40;;;;;;5157433;27;20034;-58
2021/12/30 07:10:44;;;;;;;1.55;0.93;;;7.90;80.40;;;;;;5157326;27;20046;-58
2021/12/30 07:13:10;;;;;;;0.82;0.73;;;7.90;80.30;;;;;;5157848;27;20405;-58
2021/12/30 07:15:36;;;;;;;1.17;0.90;;;7.90;80.40;;;;;;5158324;27;20039;-58
2021/12/30 07:18:02;;;;;;;2.28;1.02;;;7.90;80.40;;;;;;5139214;27;20055;-57
2021/12/30 07:20:27;;;;;;;1.33;1.02;;;8.00;80.50;;;;;;5138661;27;20133;-56
2021/12/30 07:22:53;;;;;;;1.45;0.80;;;7.90;80.40;;;;;;5157131;27;20035;-57
2021/12/30 07:25:19;;;;;;;0.93;0.85;;;8.00;80.50;;;;;;5156998;27;20489;-58
2021/12/30 07:27:49;;;;;;;1.55;0.90;;;8.00;80.50;;;;;;5139971;27;20047;-58
2021/12/30 07:30:16;;;;;;;1.88;1.00;;;8.00;80.50;;;;;;5157092;27;20038;-58
2021/12/30 07:32:43;;;;;;;1.05;0.90;;;8.00;80.50;;;;;;5157511;27;20038;-58
2021/12/30 07:35:09;;;;;;;0.82;0.75;;;8.00;80.50;;;;;;5157181;27;20146;-59
2021/12/30 07:37:35;;;;;;;2.08;1.13;;;8.00;80.50;;;;;;5158140;27;20118;-58
2021/12/30 07:40:00;;;;;;;1.33;1.20;;;8.00;80.50;;;;;;5156596;27;20042;-58
2021/12/30 07:42:26;;;;;;;1.45;0.90;;;8.00;80.50;;;;;;5157013;27;20035;-58
2021/12/30 07:44:52;;;;;;;1.85;1.15;;;8.00;80.50;;;;;;5157029;27;20095;-58
2021/12/30 07:47:18;;;;;;;1.08;0.98;;;8.00;80.50;;;;;;5158072;27;20045;-56
2021/12/30 07:49:45;;;;;;;0.88;0.80;;;8.00;80.50;;;;;;5156896;27;20050;-58
2021/12/30 07:52:11;;;;;;;0.68;0.60;;;8.00;80.50;;;;;;5138278;27;20398;-57
2021/12/30 07:54:36;;;;;;;1.75;0.90;;;8.00;80.50;;;;;;5156300;27;20049;-59
2021/12/30 07:57:02;;;;;;;1.65;0.98;;;8.00;80.50;;;;;;5156520;27;20046;-59
2021/12/30 07:59:28;;;;;;;1.33;1.00;;;8.00;80.50;;;;;;5138825;27;20087;-58
2021/12/30 08:01:54;;;;;;;2.03;0.85;;;8.00;80.50;;;;;;5155345;27;20122;-58
2021/12/30 08:04:20;;;;;;;1.77;0.98;;;8.00;80.40;;;;;;5155758;27;20117;-58
2021/12/30 08:06:45;;;;;;;1.90;1.00;;;8.00;80.50;;;;;;5156051;27;20053;-57
2021/12/30 08:09:11;;;;;;;0.68;0.68;;;8.00;80.40;;;;;;5138003;27;20051;-59
2021/12/30 08:11:37;;;;;;;2.20;1.08;;;8.00;80.40;;;;;;5155192;27;20126;-57
2021/12/30 08:14:02;;;;;;;1.25;0.90;;;8.00;80.40;;;;;;5155415;27;20123;-58
2021/12/30 08:16:29;;;;;;;0.82;0.80;;;8.00;80.50;;;;;;5156375;27;20057;-59
2021/12/30 08:18:55;;;;;;;1.35;0.80;;;8.10;80.50;;;;;;5156456;27;20039;-58
2021/12/30 08:21:22;;;;;;;0.93;0.80;;;8.00;80.40;;;;;;5157665;27;20046;-59
2021/12/30 08:23:51;;;;;;;1.20;0.75;;;8.00;80.40;;;;;;5156126;27;20053;-59
2021/12/30 08:26:18;;;;;;;1.52;0.98;;;8.00;80.40;;;;;;5155920;27;20054;-59
2021/12/30 08:28:45;;;;;;;1.55;1.02;;;8.10;80.50;;;;;;5155826;27;20027;-58
2021/12/30 08:31:12;;;;;;;1.45;0.77;;;8.00;80.40;;;;;;5157420;27;20046;-58
2021/12/30 08:33:38;;;;;;;1.00;0.88;;;8.10;80.50;;;;;;5156258;27;20039;-58
2021/12/30 08:36:04;;;;;;;1.65;1.10;;;8.00;80.40;;;;;;5155967;27;20550;-59
2021/12/30 08:38:30;;;;;;;1.33;0.95;;;8.10;80.50;;;;;;5156229;27;20045;-58
2021/12/30 08:40:56;;;;;;;1.15;0.73;;;8.00;80.40;;;;;;5156854;27;20027;-58
2021/12/30 08:43:22;;;;;;;1.30;1.00;;;8.00;80.40;;;;;;5155250;27;20088;-58
2021/12/30 08:45:48;;;;;;;1.15;1.00;;;8.10;80.40;;;;;;5136917;27;20099;-57
2021/12/30 08:48:15;;;;;;;0.60;0.60;;;8.10;80.50;;;;;;5155407;27;20026;-59
2021/12/30 08:50:41;;;;;;;1.42;0.88;;;8.10;80.50;;;;;;5155595;27;20039;-58
2021/12/30 08:53:08;;;;;;;1.63;0.90;;;8.10;80.40;;;;;;5137847;27;20047;-58
2021/12/30 08:55:35;;;;;;;1.00;0.80;;;8.10;80.40;;;;;;5155554;27;20398;-59
2021/12/30 08:58:01;;;;;;;0.80;0.80;;;8.10;80.40;;;;;;5137014;27;20038;-59
2021/12/30 09:00:30;;;;;;;0.80;0.80;;;8.10;80.40;;;;;;5136112;27;20039;-57
2021/12/30 09:02:58;;;;;;;1.00;0.77;;;8.10;80.40;;;;;;5156657;27;20077;-57
2021/12/30 09:05:24;;;;;;;0.95;0.80;;;8.10;80.50;;;;;;5155599;27;20035;-59
2021/12/30 09:07:51;;;;;;;0.65;0.65;;;8.10;80.40;;;;;;5155285;27;20051;-58
2021/12/30 09:10:19;;;;;;;1.00;0.90;;;8.10;80.40;;;;;;5155540;27;20039;-58
2021/12/30 09:12:46;;;;;;;1.05;0.93;;;8.10;80.40;;;;;;5156152;27;20040;-57
2021/12/30 09:15:18;;;;;;;1.52;0.60;;;8.10;80.40;;;;;;5154754;27;20082;-58
2021/12/30 09:17:46;;;;;;;0.65;0.63;;;8.10;80.40;;;;;;5165510;27;20042;-56
2021/12/30 09:20:12;;;;;;;1.17;0.80;;;8.10;80.40;;;;;;5169200;27;20050;-58
2021/12/30 09:22:38;;;;;;;1.10;0.93;;;8.10;80.40;;;;;;5169204;27;20091;-56
2021/12/30 09:25:07;;;;;;;0.88;0.60;;;8.10;80.40;;;;;;5175661;27;20049;-56
2021/12/30 09:27:38;;;;;;;0.60;0.60;;;8.10;80.40;;;;;;5155007;27;20525;-56
2021/12/30 09:30:07;;;;;;;1.08;0.77;;;8.10;80.40;;;;;;5154923;27;20034;-56
2021/12/30 09:32:34;;;;;;;1.15;0.80;;;8.10;80.40;;;;;;5154712;27;20047;-56
2021/12/30 09:35:00;;;;;;;1.67;0.90;;;8.10;80.40;;;;;;5163057;27;20528;-59
2021/12/30 09:37:25;;;;;;;1.25;0.70;;;8.10;80.30;;;;;;5156229;27;20163;-57
2021/12/30 09:39:51;;;;;;;0.60;0.60;;;8.10;81.00;;;;;;5162697;27;20041;-58
2021/12/30 09:42:18;;;;;;;0.70;0.70;;;8.10;80.30;;;;;;5165158;27;20045;-56
2021/12/30 09:44:44;;;;;;;1.10;1.02;;;8.20;80.40;;;;;;5163392;27;20051;-57
2021/12/30 09:47:10;;;;;;;1.25;0.73;;;8.10;80.30;;;;;;5162151;27;20027;-58
2021/12/30 09:49:35;;;;;;;0.95;0.77;;;8.20;80.30;;;;;;5162691;27;20114;-59
2021/12/30 09:52:01;;;;;;;0.82;0.68;;;8.20;80.40;;;;;;5164973;27;20034;-57
2021/12/30 09:54:27;;;;;;;0.55;0.55;;;8.10;80.30;;;;;;5164109;27;20066;-58
2021/12/30 09:56:53;;;;;;;0.82;0.52;;;8.20;80.30;;;;;;5161853;27;20038;-58
2021/12/30 09:59:24;;;;;;;0.85;0.70;;;8.20;80.30;;;;;;5164694;27;20038;-58
2021/12/30 10:01:50;;;;;;;0.65;0.65;;;8.20;80.30;;;;;;5163972;27;20554;-56
2021/12/30 10:04:16;;;;;;;0.80;0.70;;;8.10;80.30;;;;;;5162212;27;20084;-56
2021/12/30 10:06:49;;;;;;;0.98;0.60;;;8.20;80.50;;;;;;5161249;27;20767;-57
2021/12/30 10:09:16;;;;;;;0.75;0.63;;;8.20;80.30;;;;;;5146184;27;20038;-56
2021/12/30 10:11:46;;;;;;;0.77;0.60;;;8.20;80.30;;;;;;5158978;27;20427;-57
2021/12/30 10:14:12;;;;;;;1.13;0.82;;;8.20;80.30;;;;;;5164015;27;20035;-58
2021/12/30 10:16:38;;;;;;;0.63;0.63;;;8.20;80.30;;;;;;5162461;27;20490;-56
2021/12/30 10:19:07;;;;;;;0.60;0.50;;;8.20;80.30;;;;;;5163861;27;20058;-57
2021/12/30 10:21:33;;;;;;;0.70;0.70;;;8.20;80.30;;;;;;5163993;27;20035;-57
2021/12/30 10:24:01;;;;;;;0.70;0.60;;;8.20;80.30;;;;;;5163947;27;20062;-58
2021/12/30 10:26:27;;;;;;;0.85;0.65;;;8.20;80.30;;;;;;5167939;27;20574;-57
2021/12/30 10:29:00;;;;;;;0.73;0.70;;;8.20;80.30;;;;;;5163184;27;20070;-56
2021/12/30 10:31:30;;;;;;;0.68;0.60;;;8.20;80.30;;;;;;5157454;27;20091;-56
2021/12/30 10:34:01;;;;;;;1.52;0.80;;;8.20;80.30;;;;;;5156535;27;20031;-59
2021/12/30 10:36:42;;;;;;;1.65;1.17;;;8.20;80.30;;;;;;5157373;27;20508;-57
2021/12/30 10:39:17;;;;;;;0.60;0.60;;;8.20;80.30;;;;;;5157683;27;20161;-57
2021/12/30 10:41:43;;;;;;;0.70;0.52;;;8.20;80.30;;;;;;5157275;27;20050;-56
2021/12/30 10:44:09;;;;;;;0.73;0.60;;;8.20;80.30;;;;;;5157348;27;20039;-58
2021/12/30 10:46:35;;;;;;;0.88;0.70;;;8.20;80.30;;;;;;5138308;27;20061;-58
2021/12/30 10:49:08;;;;;;;0.60;0.60;;;8.20;80.30;;;;;;5157383;27;20502;-57
2021/12/30 10:51:50;;;;;;;2.47;0.70;;;8.20;80.30;;;;;;5156704;27;20388;-57
2021/12/30 10:54:24;;;;;;;0.60;0.57;;;8.20;80.30;;;;;;5156973;27;20107;-56
2021/12/30 10:57:06;;;;;;;0.90;0.75;;;8.20;80.30;;;;;;5157431;27;20043;-56
2021/12/30 10:59:35;;;;;;;1.00;0.70;;;8.20;80.30;;;;;;5156741;27;20505;-58
2021/12/30 11:02:09;;;;;;;7.90;2.55;;;8.20;80.30;;;;;;5157108;27;20039;-62
2021/12/30 11:04:36;;;;;;;19.92;3.58;;;8.20;82.80;;;;;;5147792;27;20117;-53
2021/12/30 11:07:02;;;;;;;16.92;4.90;;;8.30;83.90;;;;;;5177311;27;20045;-50
2021/12/30 11:09:28;;;;;;;17.30;4.00;;;8.40;83.80;;;;;;5173318;27;20413;-51
2021/12/30 11:12:00;;;;;;;14.23;3.50;;;8.40;83.70;;;;;;5156778;27;20046;-53
2021/12/30 11:14:31;;;;;;;16.23;3.63;;;8.40;83.70;;;;;;5156186;27;20039;-53
2021/12/30 11:17:01;;;;;;;9.00;3.08;;;8.40;83.60;;;;;;5156143;27;20114;-55
2021/12/30 11:19:29;;;;;;;9.57;3.45;;;8.40;83.50;;;;;;5155729;27;20052;-52
2021/12/30 11:21:59;;;;;;;12.25;3.33;;;8.40;83.40;;;;;;5156145;27;20033;-53
2021/12/30 11:24:27;;;;;;;8.57;3.30;;;8.40;83.30;;;;;;5155740;27;20553;-53
2021/12/30 11:26:54;;;;;;;9.35;3.28;;;8.40;83.10;;;;;;5155978;27;20177;-57
2021/12/30 11:29:20;;;;;;;12.50;3.30;;;8.30;83.00;;;;;;5159584;27;20042;-54
2021/12/30 11:31:46;;;;;;;11.88;3.10;;;8.30;82.90;;;;;;5164925;27;20042;-56
2021/12/30 11:34:12;;;;;;;8.90;2.63;;;8.40;82.90;;;;;;5155559;27;20095;-55
2021/12/30 11:36:37;;;;;;;9.10;2.65;;;8.30;82.70;;;;;;5154575;27;20057;-57
2021/12/30 11:39:15;;;;;;;10.85;2.75;;;8.30;82.60;;;;;;5156101;27;20043;-56
2021/12/30 11:41:46;;;;;;;8.57;2.65;;;8.30;82.60;;;;;;5176982;27;20078;-57
2021/12/30 11:44:37;;;;;;;8.15;3.03;;;8.40;82.50;;;;;;5177487;27;20050;-58
2021/12/30 11:47:05;;;;;;;6.30;2.80;;;8.40;82.50;;;;;;5177243;27;20050;-57
2021/12/30 11:49:55;;;;;;;6.70;2.33;;;8.40;82.40;;;;;;5177181;27;20047;-56
2021/12/30 11:52:45;;;;;;;5.38;2.05;;;8.40;82.30;;;;;;5156412;27;20560;-57
2021/12/30 11:55:57;;;;;;;6.50;2.60;;;8.40;82.30;;;;;;5155964;27;20159;-57
2021/12/30 11:58:40;;;;;;;3.88;1.88;;;8.40;82.20;;;;;;5072151;28;20432;-57
2021/12/30 12:01:12;;;;;;;6.65;2.80;;;8.30;82.20;;;;;;5067163;28;20463;-57
2021/12/30 12:03:37;;;;;;;8.15;2.28;;;8.40;82.10;;;;;;5052138;28;20056;-57
2021/12/30 12:06:30;;;;;;;5.75;2.03;;;8.40;82.10;;;;;;5052129;28;20047;-57
2021/12/30 12:08:56;;;;;;;4.03;2.17;;;8.40;82.00;;;;;;5052203;28;20148;-56
2021/12/30 12:11:30;;;;;;;5.32;2.03;;;8.40;82.00;;;;;;5052518;28;20512;-56
2021/12/30 12:14:13;;;;;;;4.10;2.00;;;8.40;82.00;;;;;;5051954;28;20037;-56
2021/12/30 12:17:00;;;;;;;5.80;2.00;;;8.40;81.90;;;;;;5051697;28;20422;-57
2021/12/30 12:19:35;;;;;;;4.78;2.10;;;8.40;81.90;;;;;;5051925;28;20053;-57
2021/12/30 12:22:03;;;;;;;4.05;1.90;;;8.40;81.90;;;;;;5036243;28;20179;-57
2021/12/30 12:24:33;;;;;;;5.85;2.22;;;8.40;81.90;;;;;;5051356;28;20052;-57
2021/12/30 12:27:10;;;;;;;5.05;1.58;;;8.40;81.90;;;;;;5050902;28;20056;-56
2021/12/30 12:29:45;;;;;;;4.38;1.67;;;8.40;81.80;;;;;;5051633;28;20091;-57
2021/12/30 12:32:15;;;;;;;4.53;2.08;;;8.40;81.80;;;;;;5051650;28;20049;-56
2021/12/30 12:34:51;;;;;;;3.22;1.70;;;8.40;81.80;;;;;;5083313;27;20055;-57
2021/12/30 12:37:28;;;;;;;;;;;8.40;81.80;;;;;;5155899;27;20324;-57
2021/12/30 12:39:59;;;;;;;7.32;2.20;;;8.30;81.70;;;;;;5155671;27;19929;-57
2021/12/30 12:42:48;;;;;;;5.40;1.70;;;8.40;81.80;;;;;;5166483;27;20110;-57
2021/12/30 12:45:18;;;;;;;5.40;1.58;;;8.40;81.70;;;;;;5053290;28;20149;-56
2021/12/30 12:47:45;;;;;;;4.32;1.48;;;8.40;81.70;;;;;;5051005;28;20053;-57
2021/12/30 12:50:11;;;;;;;3.03;1.65;;;8.40;81.70;;;;;;5051073;28;20551;-56
2021/12/30 12:52:45;;;;;;;3.42;1.70;;;8.30;81.70;;;;;;5051047;28;20175;-53
2021/12/30 12:55:21;;;;;;;4.03;1.52;;;8.40;81.60;;;;;;5052157;28;20132;-56
2021/12/30 12:57:46;;;;;;;3.45;1.60;;;8.40;81.60;;;;;;5053526;28;20393;-57
2021/12/30 13:00:13;;;;;;;2.45;1.27;;;8.40;81.60;;;;;;5056091;28;20041;-57
2021/12/30 13:02:46;;;;;;;3.45;1.63;;;8.40;81.60;;;;;;5055755;28;20540;-57